Time,TemperatureF,DewpointF,PressureIn,WindDirection,WindDirectionDegrees,WindSpeedMPH,WindSpeedGustMPH,Humidity,HourlyPrecipIn,Conditions,Clouds,dailyrainin,SoftwareType,DateUTC
2013-03-05 00:02:00,33.0,28.0,29.18,North,0,0.0,0.0,80,0.00,,,0.00,,2013-03-05 05:02:00,
2013-03-05 00:12:00,33.0,28.0,29.18,North,0,0.0,0.0,80,0.00,,,0.00,,2013-03-05 05:12:00,
2013-03-05 00:22:00,33.0,28.0,29.18,North,0,0.0,0.0,82,0.00,,,0.00,,2013-03-05 05:22:00,
2013-03-05 00:32:00,33.0,28.0,29.18,North,0,0.0,0.0,80,0.00,,,0.00,,2013-03-05 05:32:00,
2013-03-05 00:42:00,33.0,28.0,29.18,North,0,0.0,0.0,80,0.00,,,0.00,,2013-03-05 05:42:00,
2013-03-05 00:52:00,33.0,30.0,29.15,North,0,0.0,0.0,87,0.00,,,0.00,,2013-03-05 05:52:00,
2013-03-05 01:01:00,33.0,30.0,29.15,North,0,0.0,0.0,87,0.00,,,0.00,,2013-03-05 06:01:00,
2013-03-05 01:11:00,33.0,30.0,29.15,North,0,0.0,0.0,87,0.00,,,0.00,,2013-03-05 06:11:00,
2013-03-05 01:22:00,33.0,30.0,29.15,North,0,0.0,0.0,88,0.00,,,0.00,,2013-03-05 06:22:00,
2013-03-05 01:32:00,33.0,30.0,29.15,North,0,0.0,0.0,89,0.00,,,0.00,,2013-03-05 06:32:00,
2013-03-05 01:42:00,33.0,30.0,29.15,North,0,0.0,0.0,89,0.00,,,0.00,,2013-03-05 06:42:00,
2013-03-05 01:52:00,33.0,30.0,29.15,North,0,0.0,0.0,90,0.00,,,0.00,,2013-03-05 06:52:00,
2013-03-05 02:01:00,34.0,31.0,29.12,North,0,0.0,0.0,89,0.00,,,0.00,,2013-03-05 07:01:00,
2013-03-05 02:11:00,34.0,31.0,29.12,North,0,0.0,0.0,89,0.00,,,0.00,,2013-03-05 07:11:00,
2013-03-05 02:22:00,34.0,31.0,29.12,North,0,0.0,0.0,89,0.00,,,0.00,,2013-03-05 07:22:00,
2013-03-05 02:32:00,34.0,31.0,29.12,North,0,0.0,0.0,89,0.00,,,0.00,,2013-03-05 07:32:00,
2013-03-05 02:42:00,34.0,31.0,29.12,North,0,0.0,0.0,89,0.00,,,0.00,,2013-03-05 07:42:00,
2013-03-05 02:51:00,35.0,32.0,29.12,North,0,0.0,0.0,88,0.00,,,0.00,,2013-03-05 07:51:00,
2013-03-05 03:02:00,36.0,33.0,29.12,North,0,0.0,0.0,88,0.00,,,0.00,,2013-03-05 08:02:00,
2013-03-05 03:11:00,36.0,33.0,29.12,North,0,0.0,0.0,88,0.00,,,0.00,,2013-03-05 08:11:00,
2013-03-05 03:21:00,36.0,33.0,29.12,North,0,0.0,0.0,87,0.00,,,0.00,,2013-03-05 08:21:00,
2013-03-05 03:32:00,39.0,35.0,29.09,North,0,0.0,6.0,84,0.00,,,0.00,,2013-03-05 08:32:00,
2013-03-05 03:42:00,39.0,35.0,29.09,North,0,0.0,6.0,84,0.00,,,0.00,,2013-03-05 08:42:00,
2013-03-05 03:52:00,43.0,34.0,29.09,NNE,15,4.0,7.0,71,0.00,,,0.00,,2013-03-05 08:52:00,
2013-03-05 04:01:00,46.0,33.0,29.09,North,4,4.0,11.0,61,0.00,,,0.00,,2013-03-05 09:01:00,
2013-03-05 04:11:00,46.0,33.0,29.09,North,4,4.0,11.0,61,0.00,,,0.00,,2013-03-05 09:11:00,
2013-03-05 04:21:00,47.0,32.0,29.09,North,2,4.0,9.0,56,0.00,,,0.00,,2013-03-05 09:21:00,
2013-03-05 04:32:00,49.0,33.0,29.06,North,7,5.0,9.0,54,0.00,,,0.00,,2013-03-05 09:32:00,
2013-03-05 04:43:00,49.0,33.0,29.06,North,7,5.0,9.0,54,0.00,,,0.00,,2013-03-05 09:43:00,
2013-03-05 04:52:00,49.0,33.0,29.09,NNE,17,5.0,8.0,54,0.00,,,0.00,,2013-03-05 09:52:00,
2013-03-05 05:01:00,49.0,34.0,29.09,NNE,14,5.0,10.0,56,0.00,,,0.00,,2013-03-05 10:01:00,
2013-03-05 05:11:00,49.0,34.0,29.09,NNE,14,5.0,10.0,56,0.00,,,0.00,,2013-03-05 10:11:00,
2013-03-05 05:22:00,49.0,34.0,29.06,North,5,5.0,10.0,56,0.00,,,0.00,,2013-03-05 10:22:00,
2013-03-05 05:32:00,49.0,36.0,29.06,NNE,26,7.0,9.0,61,0.00,,,0.00,,2013-03-05 10:32:00,
2013-03-05 05:42:00,49.0,36.0,29.06,NNE,26,7.0,9.0,61,0.00,,,0.00,,2013-03-05 10:42:00,
2013-03-05 05:52:00,48.0,38.0,29.06,NNE,21,4.0,9.0,69,0.00,,,0.00,,2013-03-05 10:52:00,
2013-03-05 06:02:00,47.0,38.0,29.06,NNE,19,3.0,9.0,70,0.00,,,0.00,,2013-03-05 11:02:00,
2013-03-05 06:11:00,47.0,38.0,29.06,NNE,19,3.0,9.0,70,0.00,,,0.00,,2013-03-05 11:11:00,
2013-03-05 06:22:00,47.0,38.0,29.09,NNE,26,4.0,8.0,70,0.00,,,0.00,,2013-03-05 11:22:00,
2013-03-05 06:32:00,48.0,39.0,29.09,NE,34,4.0,7.0,72,0.00,,,0.00,,2013-03-05 11:32:00,
2013-03-05 06:42:00,48.0,39.0,29.09,NE,34,4.0,7.0,72,0.00,,,0.00,,2013-03-05 11:42:00,
2013-03-05 06:52:00,48.0,39.0,29.09,North,2,6.0,10.0,72,0.00,,,0.00,,2013-03-05 11:52:00,
2013-03-05 07:02:00,48.0,40.0,29.06,NNE,16,5.0,9.0,73,0.00,,,0.00,,2013-03-05 12:02:00,
2013-03-05 07:12:00,48.0,40.0,29.06,NNE,16,5.0,9.0,73,0.00,,,0.00,,2013-03-05 12:12:00,
2013-03-05 07:22:00,48.0,40.0,29.06,North,10,5.0,11.0,73,0.00,,,0.00,,2013-03-05 12:22:00,
2013-03-05 07:32:00,49.0,41.0,29.06,NNE,25,4.0,9.0,75,0.00,,,0.00,,2013-03-05 12:32:00,
2013-03-05 07:42:00,49.0,41.0,29.06,NNE,25,4.0,9.0,75,0.00,,,0.00,,2013-03-05 12:42:00,
2013-03-05 07:52:00,49.0,41.0,29.06,NNE,21,6.0,11.0,75,0.00,,,0.00,,2013-03-05 12:52:00,
2013-03-05 08:02:00,49.0,41.0,29.06,North,11,4.0,13.0,75,0.00,,,0.00,,2013-03-05 13:02:00,
2013-03-05 08:12:00,49.0,41.0,29.06,North,11,4.0,13.0,75,0.00,,,0.00,,2013-03-05 13:12:00,
2013-03-05 08:22:00,49.0,41.0,29.06,NNE,33,4.0,12.0,75,0.00,,,0.00,,2013-03-05 13:22:00,
2013-03-05 08:32:00,50.0,42.0,29.06,NNE,17,7.0,10.0,75,0.00,,,0.00,,2013-03-05 13:32:00,
2013-03-05 08:42:00,50.0,42.0,29.06,NNE,17,7.0,10.0,75,0.00,,,0.00,,2013-03-05 13:42:00,
2013-03-05 08:52:00,50.0,42.0,29.06,North,4,5.0,11.0,75,0.00,,,0.00,,2013-03-05 13:52:00,
2013-03-05 09:02:00,51.0,43.0,29.06,North,11,6.0,12.0,75,0.00,,,0.00,,2013-03-05 14:02:00,
2013-03-05 09:11:00,51.0,43.0,29.06,North,11,6.0,12.0,75,0.00,,,0.00,,2013-03-05 14:11:00,
2013-03-05 09:22:00,51.0,44.0,29.06,NNE,13,7.0,12.0,76,0.00,,,0.00,,2013-03-05 14:22:00,
2013-03-05 09:32:00,51.0,43.0,29.06,NNE,15,5.0,12.0,75,0.00,,,0.00,,2013-03-05 14:32:00,
2013-03-05 09:42:00,51.0,43.0,29.06,NNE,15,5.0,12.0,75,0.00,,,0.00,,2013-03-05 14:42:00,
2013-03-05 09:52:00,51.0,44.0,29.03,NNE,21,4.0,10.0,76,0.00,,,0.00,,2013-03-05 14:52:00,
2013-03-05 10:02:00,52.0,45.0,29.03,North,8,8.0,12.0,76,0.00,,,0.00,,2013-03-05 15:02:00,
2013-03-05 10:11:00,52.0,45.0,29.03,North,8,8.0,12.0,76,0.00,,,0.00,,2013-03-05 15:11:00,
2013-03-05 10:22:00,52.0,45.0,29.03,NNE,24,7.0,15.0,76,0.00,,,0.00,,2013-03-05 15:22:00,
2013-03-05 10:32:00,53.0,46.0,29.03,NNE,20,4.0,13.0,78,0.00,,,0.00,,2013-03-05 15:32:00,
2013-03-05 10:42:00,53.0,46.0,29.03,NNE,20,4.0,13.0,78,0.00,,,0.00,,2013-03-05 15:42:00,
2013-03-05 10:52:00,53.0,46.0,29.00,NNE,14,6.0,13.0,77,0.00,,,0.00,,2013-03-05 15:52:00,
2013-03-05 11:02:00,53.0,46.0,29.00,NNE,17,6.0,10.0,77,0.00,,,0.00,,2013-03-05 16:02:00,
2013-03-05 11:11:00,53.0,46.0,29.00,NNE,17,6.0,10.0,77,0.00,,,0.00,,2013-03-05 16:11:00,
2013-03-05 11:22:00,54.0,47.0,29.00,North,6,6.0,11.0,78,0.00,,,0.00,,2013-03-05 16:22:00,
2013-03-05 11:32:00,54.0,47.0,29.00,North,6,6.0,11.0,78,0.00,,,0.00,,2013-03-05 16:32:00,
2013-03-05 11:42:00,54.0,47.0,29.00,North,6,6.0,11.0,78,0.00,,,0.00,,2013-03-05 16:42:00,
2013-03-05 11:52:00,54.0,47.0,29.00,North,6,6.0,11.0,78,0.00,,,0.00,,2013-03-05 16:52:00,
2013-03-05 12:01:00,53.0,47.0,29.00,NE,42,9.0,14.0,79,0.00,,,0.00,,2013-03-05 17:01:00,
2013-03-05 12:11:00,53.0,47.0,29.00,NE,42,9.0,14.0,79,0.00,,,0.00,,2013-03-05 17:11:00,
2013-03-05 12:22:00,53.0,48.0,28.97,NNE,15,5.0,11.0,83,0.00,,,0.00,,2013-03-05 17:22:00,
2013-03-05 12:32:00,52.0,48.0,28.97,NNE,32,5.0,12.0,85,0.00,,,0.00,,2013-03-05 17:32:00,
2013-03-05 12:42:00,52.0,48.0,28.97,NNE,32,5.0,12.0,85,0.00,,,0.00,,2013-03-05 17:42:00,
2013-03-05 12:52:00,53.0,49.0,28.97,NNE,23,6.0,8.0,87,0.00,,,0.00,,2013-03-05 17:52:00,
2013-03-05 13:02:00,53.0,49.0,28.97,NNE,23,6.0,8.0,87,0.00,,,0.00,,2013-03-05 18:02:00,
2013-03-05 13:11:00,53.0,49.0,28.97,NNE,23,6.0,8.0,87,0.00,,,0.00,,2013-03-05 18:11:00,
2013-03-05 13:22:00,51.0,49.0,28.97,ESE,107,3.0,5.0,92,0.12,,,0.12,,2013-03-05 18:22:00,
2013-03-05 13:32:00,51.0,50.0,28.91,WNW,290,6.0,7.0,96,0.16,,,0.16,,2013-03-05 18:32:00,
2013-03-05 13:42:00,51.0,50.0,28.91,WNW,290,6.0,7.0,96,0.16,,,0.16,,2013-03-05 18:42:00,
2013-03-05 13:53:00,52.0,51.0,28.91,NW,320,5.0,7.0,96,0.16,,,0.16,,2013-03-05 18:53:00,
2013-03-05 14:01:00,53.0,52.0,28.88,NW,313,6.0,8.0,95,0.20,,,0.20,,2013-03-05 19:01:00,
2013-03-05 14:11:00,53.0,52.0,28.88,NW,313,6.0,8.0,95,0.20,,,0.20,,2013-03-05 19:11:00,
2013-03-05 14:22:00,54.0,52.0,28.85,NNW,335,7.0,9.0,93,0.08,,,0.20,,2013-03-05 19:22:00,
2013-03-05 14:32:00,55.0,53.0,28.85,North,358,8.0,12.0,92,0.04,,,0.20,,2013-03-05 19:32:00,
2013-03-05 14:42:00,55.0,53.0,28.85,North,358,8.0,12.0,92,0.04,,,0.20,,2013-03-05 19:42:00,
2013-03-05 14:52:00,56.0,52.0,28.82,North,7,4.0,11.0,87,0.04,,,0.20,,2013-03-05 19:52:00,
2013-03-05 15:01:00,55.0,51.0,28.82,North,5,6.0,11.0,86,0.00,,,0.20,,2013-03-05 20:01:00,
2013-03-05 15:11:00,55.0,52.0,28.79,NNE,30,5.0,11.0,88,0.04,,,0.24,,2013-03-05 20:11:00,
2013-03-05 15:22:00,55.0,52.0,28.79,NNE,30,5.0,11.0,88,0.04,,,0.24,,2013-03-05 20:22:00,
2013-03-05 15:32:00,54.0,52.0,28.79,NE,42,4.0,7.0,92,0.12,,,0.31,,2013-03-05 20:32:00,
2013-03-05 15:42:00,54.0,52.0,28.79,NE,42,4.0,7.0,92,0.12,,,0.31,,2013-03-05 20:42:00,
2013-03-05 15:52:00,53.0,52.0,28.79,East,99,6.0,13.0,96,0.31,,,0.51,,2013-03-05 20:52:00,
2013-03-05 16:02:00,53.0,52.0,28.79,East,99,6.0,13.0,96,0.31,,,0.51,,2013-03-05 21:02:00,
2013-03-05 16:11:00,53.0,52.0,28.79,East,99,6.0,13.0,96,0.31,,,0.51,,2013-03-05 21:11:00,
2013-03-05 16:22:00,52.0,51.0,28.85,East,99,7.0,13.0,98,0.28,,,0.55,,2013-03-05 21:22:00,
2013-03-05 16:32:00,53.0,51.0,28.82,East,90,4.0,7.0,92,0.20,,,0.55,,2013-03-05 21:32:00,
2013-03-05 16:42:00,53.0,51.0,28.82,East,90,4.0,7.0,92,0.20,,,0.55,,2013-03-05 21:42:00,
2013-03-05 16:52:00,53.0,50.0,28.82,ENE,74,4.0,7.0,90,0.16,,,0.55,,2013-03-05 21:52:00,
2013-03-05 17:01:00,53.0,50.0,28.85,ENE,72,4.0,6.0,88,0.04,,,0.55,,2013-03-05 22:01:00,
2013-03-05 17:11:00,53.0,50.0,28.85,ENE,72,4.0,6.0,88,0.04,,,0.55,,2013-03-05 22:11:00,
2013-03-05 17:22:00,54.0,49.0,28.85,NE,46,6.0,15.0,82,0.00,,,0.55,,2013-03-05 22:22:00,
2013-03-05 17:32:00,53.0,46.0,28.85,ENE,71,8.0,13.0,78,0.00,,,0.55,,2013-03-05 22:32:00,
2013-03-05 17:42:00,53.0,46.0,28.85,ENE,71,8.0,13.0,78,0.00,,,0.55,,2013-03-05 22:42:00,
2013-03-05 17:52:00,53.0,45.0,28.85,East,88,11.0,20.0,73,0.00,,,0.55,,2013-03-05 22:52:00,
2013-03-05 18:01:00,52.0,42.0,28.88,East,89,11.0,16.0,69,0.00,,,0.55,,2013-03-05 23:01:00,
2013-03-05 18:11:00,52.0,42.0,28.88,East,89,11.0,16.0,69,0.00,,,0.55,,2013-03-05 23:11:00,
2013-03-05 18:22:00,50.0,40.0,28.91,East,90,8.0,17.0,69,0.00,,,0.55,,2013-03-05 23:22:00,
2013-03-05 18:32:00,48.0,39.0,28.94,East,91,7.0,15.0,71,0.00,,,0.55,,2013-03-05 23:32:00,
2013-03-05 18:42:00,48.0,39.0,28.94,East,91,7.0,15.0,71,0.00,,,0.55,,2013-03-05 23:42:00,
2013-03-05 18:52:00,47.0,39.0,28.94,East,90,8.0,15.0,73,0.00,,,0.55,,2013-03-05 23:52:00,
2013-03-05 19:02:00,46.0,37.0,28.97,East,97,5.0,13.0,72,0.00,,,0.55,,2013-03-06 00:02:00,
2013-03-05 19:11:00,46.0,37.0,28.97,East,97,5.0,13.0,72,0.00,,,0.55,,2013-03-06 00:11:00,
2013-03-05 19:22:00,44.0,36.0,29.00,ESE,103,7.0,12.0,74,0.00,,,0.55,,2013-03-06 00:22:00,
2013-03-05 19:32:00,43.0,36.0,29.00,ESE,116,7.0,12.0,75,0.00,,,0.55,,2013-03-06 00:32:00,
2013-03-05 19:42:00,43.0,36.0,29.00,ESE,116,7.0,12.0,75,0.00,,,0.55,,2013-03-06 00:42:00,
2013-03-05 19:52:00,41.0,33.0,29.03,East,92,8.0,16.0,72,0.00,,,0.55,,2013-03-06 00:52:00,
2013-03-05 20:02:00,39.0,31.0,29.06,East,94,8.0,13.0,72,0.00,,,0.55,,2013-03-06 01:02:00,
2013-03-05 20:11:00,39.0,31.0,29.06,East,94,8.0,13.0,72,0.00,,,0.55,,2013-03-06 01:11:00,
2013-03-05 20:22:00,38.0,30.0,29.09,East,92,8.0,13.0,72,0.00,,,0.55,,2013-03-06 01:22:00,
2013-03-05 20:32:00,38.0,29.0,29.09,East,97,5.0,13.0,71,0.00,,,0.55,,2013-03-06 01:32:00,
2013-03-05 20:42:00,38.0,29.0,29.09,East,97,5.0,13.0,71,0.00,,,0.55,,2013-03-06 01:42:00,
2013-03-05 20:52:00,37.0,29.0,29.09,East,89,7.0,13.0,72,0.00,,,0.55,,2013-03-06 01:52:00,
2013-03-05 21:01:00,37.0,29.0,29.09,East,94,5.0,10.0,72,0.00,,,0.55,,2013-03-06 02:01:00,
2013-03-05 21:11:00,37.0,29.0,29.09,East,94,5.0,10.0,72,0.00,,,0.55,,2013-03-06 02:11:00,
2013-03-05 21:22:00,36.0,28.0,29.09,East,93,4.0,8.0,72,0.00,,,0.55,,2013-03-06 02:22:00,
2013-03-05 21:32:00,36.0,28.0,29.09,East,90,5.0,13.0,71,0.00,,,0.55,,2013-03-06 02:32:00,
2013-03-05 21:42:00,36.0,28.0,29.09,East,90,5.0,13.0,71,0.00,,,0.55,,2013-03-06 02:42:00,
2013-03-05 21:52:00,36.0,28.0,29.09,East,90,5.0,13.0,71,0.00,,,0.55,,2013-03-06 02:52:00,
2013-03-05 22:02:00,36.0,25.0,29.09,East,96,5.0,9.0,65,0.00,,,0.55,,2013-03-06 03:02:00,
2013-03-05 22:11:00,36.0,25.0,29.09,East,96,5.0,9.0,65,0.00,,,0.55,,2013-03-06 03:11:00,
2013-03-05 22:22:00,36.0,25.0,29.09,East,99,3.0,9.0,64,0.00,,,0.55,,2013-03-06 03:22:00,
2013-03-05 22:32:00,36.0,25.0,29.09,East,99,3.0,9.0,64,0.00,,,0.55,,2013-03-06 03:32:00,
2013-03-05 22:42:00,36.0,25.0,29.09,East,99,3.0,9.0,64,0.00,,,0.55,,2013-03-06 03:42:00,
2013-03-05 23:02:00,35.0,25.0,29.09,East,100,4.0,6.0,67,0.00,,,0.55,,2013-03-06 04:02:00,
2013-03-05 23:11:00,35.0,25.0,29.09,East,100,4.0,6.0,67,0.00,,,0.55,,2013-03-06 04:11:00,
2013-03-05 23:22:00,35.0,25.0,29.09,East,90,4.0,6.0,66,0.00,,,0.55,,2013-03-06 04:22:00,
2013-03-05 23:32:00,35.0,25.0,29.09,East,90,4.0,6.0,66,0.00,,,0.55,,2013-03-06 04:32:00,
2013-03-05 23:42:00,35.0,25.0,29.09,East,90,4.0,6.0,66,0.00,,,0.55,,2013-03-06 04:42:00,
2013-03-05 23:52:00,35.0,26.0,29.09,East,86,3.0,6.0,69,0.00,,,0.55,,2013-03-06 04:52:00,